< < Back
Terminal Aerodrome Forecast


Current Version              Previous Versions:   1  2  3  4  5  6  7  8  9  

Terminal Aerodrome Forecast

353
FTUS44 KBMX 300400 AAA
TAFBHM
TAF AMD
KBHM 300424Z 3004/3024 34012G20KT P6SM BKN050
     FM300600 34012G20KT P6SM BKN030
     FM300800 35010KT P6SM BKN035
     FM301300 36012KT P6SM SCT025 BKN250=



Latest METAR

815
SAUS70 KWBC 301756
MTRBHM
METAR KBHM 301753Z 02010KT 10SM FEW250 09/M04 A3041 RMK AO2 SLP298
T00891044 10094 20039 58001


USA.gov is the U.S. government's official web portal to all federal, state and local government web resources and services.